createdAt,value
2023-04-08T00:02:21.405Z,24.63
2023-04-08T00:04:49.539Z,22.77
2023-04-08T00:07:17.820Z,21.08
2023-04-08T00:09:46.045Z,22.48
2023-04-08T00:12:14.338Z,27.17
2023-04-08T00:14:42.338Z,22.83
2023-04-08T00:17:10.841Z,25.00
2023-04-08T00:19:39.018Z,23.13
2023-04-08T00:22:06.987Z,21.27
2023-04-08T00:24:35.248Z,22.65
2023-04-08T00:27:03.518Z,22.38
2023-04-08T00:29:31.451Z,22.98
2023-04-08T00:31:59.815Z,23.02
2023-04-08T00:34:27.947Z,25.92
2023-04-08T00:36:56.443Z,23.92
2023-04-08T00:39:24.331Z,22.23
2023-04-08T00:41:52.350Z,25.35
2023-04-08T00:44:20.369Z,22.42
2023-04-08T00:46:48.748Z,24.60
2023-04-08T00:49:17.640Z,24.67
2023-04-08T00:51:46.060Z,22.75
2023-04-08T00:54:14.519Z,24.00
2023-04-08T00:56:45.106Z,22.05
2023-04-08T00:59:13.479Z,27.08
2023-04-08T01:02:07.566Z,25.50
2023-04-08T01:04:43.513Z,24.13
2023-04-08T01:07:24.909Z,23.95
2023-04-08T01:09:55.497Z,25.73
2023-04-08T01:12:27.903Z,22.73
2023-04-08T01:15:06.196Z,24.52
2023-04-08T01:17:37.119Z,24.85
2023-04-08T01:20:07.517Z,26.65
2023-04-08T01:23:05.844Z,25.10
2023-04-08T01:25:36.758Z,22.48
2023-04-08T01:28:10.892Z,22.42
2023-04-08T01:30:41.051Z,23.40
2023-04-08T01:33:12.334Z,28.55
2023-04-08T01:35:40.978Z,27.17
2023-04-08T01:38:14.133Z,25.25
2023-04-08T01:40:43.333Z,24.30
2023-04-08T01:43:15.001Z,22.65
2023-04-08T01:45:47.994Z,25.35
2023-04-08T01:48:16.526Z,25.85
2023-04-08T01:50:45.947Z,23.33
2023-04-08T01:53:14.937Z,25.67
2023-04-08T01:55:43.640Z,25.42
2023-04-08T01:58:20.619Z,27.02
2023-04-08T02:00:50.446Z,24.30
2023-04-08T02:03:20.462Z,25.27
2023-04-08T02:05:48.833Z,26.55
2023-04-08T02:08:16.835Z,28.92
2023-04-08T02:10:44.905Z,28.85
2023-04-08T02:13:13.004Z,26.65
2023-04-08T02:15:47.747Z,26.55
2023-04-08T02:18:22.576Z,23.95
2023-04-08T02:21:03.231Z,23.77
2023-04-08T02:23:35.702Z,25.35
2023-04-08T02:26:06.476Z,24.67
2023-04-08T02:28:35.541Z,27.88
2023-04-08T02:31:04.116Z,28.35
2023-04-08T02:33:34.448Z,30.27
2023-04-08T02:36:03.252Z,27.95
2023-04-08T02:38:31.505Z,27.88
2023-04-08T02:40:59.484Z,25.20
2023-04-08T02:43:32.615Z,25.77
2023-04-08T02:46:07.383Z,24.88
2023-04-08T02:48:37.843Z,24.25
2023-04-08T02:51:08.487Z,25.08
2023-04-08T02:53:36.723Z,25.40
2023-04-08T02:56:04.982Z,23.30
2023-04-08T02:58:33.810Z,24.13
2023-04-08T03:01:01.815Z,26.40
2023-04-08T03:03:31.288Z,24.33
2023-04-08T03:05:59.633Z,23.77
2023-04-08T03:08:27.849Z,22.83
2023-04-08T03:10:55.804Z,23.85
2023-04-08T03:13:23.880Z,24.63
2023-04-08T03:15:51.798Z,25.65
2023-04-08T03:18:19.969Z,25.10
2023-04-08T03:20:47.975Z,23.90
2023-04-08T03:23:16.516Z,28.50
2023-04-08T03:25:44.611Z,24.27
2023-04-08T03:28:12.677Z,22.93
2023-04-08T03:30:40.992Z,24.33
2023-04-08T03:33:09.107Z,29.85
2023-04-08T03:35:37.598Z,25.00
2023-04-08T03:38:05.840Z,24.70
2023-04-08T03:40:33.920Z,25.63
2023-04-08T03:43:01.934Z,25.65
2023-04-08T03:45:29.938Z,22.93
2023-04-08T03:47:57.816Z,26.13
2023-04-08T03:50:25.706Z,25.00
2023-04-08T03:52:53.856Z,26.10
2023-04-08T03:55:21.838Z,26.10
2023-04-08T03:57:49.740Z,24.27
2023-04-08T04:00:18.638Z,28.10
2023-04-08T04:02:46.995Z,25.90
2023-04-08T04:05:15.114Z,25.90
2023-04-08T04:07:43.125Z,29.13
2023-04-08T04:10:11.899Z,24.15
2023-04-08T04:12:40.068Z,26.27
2023-04-08T04:15:08.461Z,24.48
2023-04-08T04:17:36.433Z,23.83
2023-04-08T04:20:06.444Z,26.17
2023-04-08T04:22:34.298Z,29.17
2023-04-08T04:25:02.656Z,26.13
2023-04-08T04:27:30.750Z,25.97
2023-04-08T04:29:58.803Z,27.02
2023-04-08T04:32:27.161Z,24.07
2023-04-08T04:34:55.032Z,24.70
2023-04-08T04:37:23.181Z,28.80
2023-04-08T04:39:51.490Z,22.57
2023-04-08T04:42:19.596Z,21.13
2023-04-08T04:44:47.810Z,23.73
2023-04-08T04:47:16.432Z,22.77
2023-04-08T04:49:45.700Z,23.93
2023-04-08T04:52:14.088Z,22.30
2023-04-08T04:54:42.210Z,25.30
2023-04-08T04:57:12.834Z,22.57
2023-04-08T04:59:41.499Z,24.13
2023-04-08T05:02:09.803Z,26.23
2023-04-08T05:04:39.208Z,21.50
2023-04-08T05:07:07.868Z,24.37
2023-04-08T05:09:36.021Z,22.50
2023-04-08T05:12:04.585Z,25.03
2023-04-08T05:14:33.606Z,20.70
2023-04-08T05:17:01.758Z,24.03
2023-04-08T05:19:29.947Z,25.52
2023-04-08T05:21:57.922Z,22.00
2023-04-08T05:24:28.243Z,21.05
2023-04-08T05:26:57.843Z,21.67
2023-04-08T05:29:28.610Z,22.55
2023-04-08T05:31:56.570Z,22.92
2023-04-08T05:34:24.705Z,20.20
2023-04-08T05:36:52.926Z,20.33
2023-04-08T05:39:21.155Z,18.77
2023-04-08T05:41:49.064Z,15.85
2023-04-08T05:44:17.558Z,16.92
2023-04-08T05:46:45.962Z,14.57
2023-04-08T05:49:13.929Z,16.38
2023-04-08T05:51:42.807Z,15.15
2023-04-08T05:54:11.349Z,12.73
2023-04-08T05:56:39.494Z,14.23
2023-04-08T05:59:07.564Z,14.77
2023-04-08T06:01:35.646Z,13.68
2023-04-08T06:04:04.013Z,13.48
2023-04-08T06:06:32.256Z,12.65
2023-04-08T06:09:00.794Z,14.45
2023-04-08T06:11:28.837Z,11.43
2023-04-08T06:13:56.809Z,12.68
2023-04-08T06:16:24.978Z,14.10
2023-04-08T06:18:56.452Z,12.55
2023-04-08T06:21:24.695Z,12.13
2023-04-08T06:23:52.722Z,12.48
2023-04-08T06:26:20.872Z,11.98
2023-04-08T06:28:49.476Z,12.38
2023-04-08T06:31:17.570Z,14.57
2023-04-08T06:33:45.571Z,10.85
2023-04-08T06:36:16.741Z,12.82
2023-04-08T06:38:44.977Z,12.88
2023-04-08T06:41:12.746Z,13.35
2023-04-08T06:43:40.635Z,12.20
2023-04-08T06:46:08.650Z,13.05
2023-04-08T06:48:37.864Z,11.68
2023-04-08T06:51:07.853Z,14.82
2023-04-08T06:53:36.408Z,11.70
2023-04-08T06:56:04.598Z,12.85
2023-04-08T06:58:32.807Z,16.85
2023-04-08T07:01:03.392Z,13.02
2023-04-08T07:03:31.468Z,17.88
2023-04-08T07:05:59.632Z,15.57
2023-04-08T07:08:27.520Z,14.43
2023-04-08T07:10:55.368Z,13.82
2023-04-08T07:13:23.695Z,19.42
2023-04-08T07:15:51.910Z,12.23
2023-04-08T07:18:21.448Z,15.57
2023-04-08T07:20:54.222Z,15.68
2023-04-08T07:23:22.660Z,16.55
2023-04-08T07:25:50.562Z,12.93
2023-04-08T07:28:18.455Z,14.75
2023-04-08T07:30:46.937Z,14.70
2023-04-08T07:33:15.930Z,14.18
2023-04-08T07:35:47.204Z,15.77
2023-04-08T07:38:16.155Z,36.40
2023-04-08T07:40:44.428Z,16.60
2023-04-08T07:43:12.924Z,11.80
2023-04-08T07:45:41.495Z,15.75
2023-04-08T07:48:09.738Z,10.32
2023-04-08T07:51:08.458Z,11.35
2023-04-08T07:53:26.724Z,12.57
2023-04-08T07:55:55.112Z,10.70
2023-04-08T07:58:23.862Z,10.65
2023-04-08T08:00:52.468Z,11.85
2023-04-08T08:03:20.942Z,10.25
2023-04-08T08:05:49.614Z,13.30
2023-04-08T08:08:17.585Z,11.90
2023-04-08T08:10:45.955Z,10.88
2023-04-08T08:13:17.136Z,10.38
2023-04-08T08:15:45.107Z,10.30
2023-04-08T08:18:13.027Z,10.55
2023-04-08T08:20:43.260Z,11.88
2023-04-08T08:23:11.159Z,10.45
2023-04-08T08:25:39.266Z,10.43
2023-04-08T08:28:07.100Z,11.85
2023-04-08T08:30:38.554Z,12.13
2023-04-08T08:33:06.645Z,12.48
2023-04-08T08:35:34.605Z,11.35
2023-04-08T08:38:02.920Z,11.50
2023-04-08T08:40:31.421Z,13.05
2023-04-08T08:43:01.442Z,11.30
2023-04-08T08:45:29.590Z,13.32
2023-04-08T08:47:58.160Z,12.65
2023-04-08T08:50:26.225Z,14.20
2023-04-08T08:52:54.529Z,12.25
2023-04-08T08:57:53.921Z,12.50
2023-04-08T09:00:34.351Z,13.77
2023-04-08T09:03:23.807Z,13.18
2023-04-08T09:05:55.571Z,11.80
2023-04-08T09:08:37.004Z,12.85
2023-04-08T09:11:19.763Z,12.57
2023-04-08T09:13:47.861Z,12.75
2023-04-08T09:16:23.303Z,12.95
2023-04-08T09:18:52.296Z,14.68
2023-04-08T09:21:24.977Z,12.23
2023-04-08T09:23:54.048Z,15.43
2023-04-08T09:26:24.804Z,14.82
2023-04-08T09:29:25.085Z,13.40
2023-04-08T09:31:59.670Z,14.13
2023-04-08T09:34:29.021Z,14.20
2023-04-08T09:36:57.285Z,14.13
2023-04-08T09:39:25.367Z,14.32
2023-04-08T09:41:54.961Z,13.95
2023-04-08T09:44:27.777Z,12.68
2023-04-08T09:47:10.722Z,14.20
2023-04-08T09:49:46.885Z,12.45
2023-04-08T09:52:30.995Z,10.57
2023-04-08T09:55:06.863Z,12.60
2023-04-08T09:57:42.099Z,17.13
2023-04-08T10:00:22.297Z,13.45
2023-04-08T10:03:11.866Z,13.77
2023-04-08T10:05:42.371Z,12.65
2023-04-08T10:08:11.155Z,12.70
2023-04-08T10:10:42.639Z,11.32
2023-04-08T10:13:11.054Z,10.98
2023-04-08T10:15:41.653Z,8.20
2023-04-08T10:18:13.784Z,9.43
2023-04-08T10:20:43.207Z,9.73
2023-04-08T10:23:14.111Z,10.25
2023-04-08T10:25:47.673Z,10.25
2023-04-08T10:28:17.773Z,11.95
2023-04-08T10:30:49.950Z,9.70
2023-04-08T10:33:41.253Z,11.70
2023-04-08T10:36:10.413Z,10.25
2023-04-08T10:38:39.704Z,11.02
2023-04-08T10:41:08.027Z,10.00
2023-04-08T10:43:36.891Z,9.60
2023-04-08T10:46:05.619Z,10.07
2023-04-08T10:48:33.628Z,10.15
2023-04-08T10:51:06.638Z,10.95
2023-04-08T10:53:40.511Z,8.88
2023-04-08T10:56:13.270Z,8.38
2023-04-08T10:58:56.168Z,10.73
2023-04-08T11:01:24.222Z,9.90
2023-04-08T11:03:56.579Z,8.10
2023-04-08T11:06:39.434Z,9.45
2023-04-08T11:09:12.342Z,10.07
2023-04-08T11:11:43.466Z,10.25
2023-04-08T11:14:11.504Z,9.52
2023-04-08T11:16:40.748Z,7.28
2023-04-08T11:19:09.029Z,10.95
2023-04-08T11:21:38.707Z,10.98
2023-04-08T11:24:13.444Z,10.10
2023-04-08T11:29:14.869Z,10.73
2023-04-08T11:31:44.762Z,9.82
2023-04-08T11:34:13.014Z,9.80
2023-04-08T11:36:41.834Z,8.43
2023-04-08T11:39:12.685Z,10.73
2023-04-08T11:41:40.874Z,11.35
2023-04-08T11:44:09.201Z,10.93
2023-04-08T11:46:37.728Z,10.65
2023-04-08T11:49:08.685Z,9.95
2023-04-08T11:51:57.777Z,10.82
2023-04-08T11:54:33.272Z,11.20
2023-04-08T11:57:03.080Z,10.55
2023-04-08T11:59:31.330Z,12.82
2023-04-08T12:02:02.599Z,12.63
2023-04-08T12:04:30.938Z,11.75
2023-04-08T12:06:59.253Z,10.88
2023-04-08T12:09:27.538Z,12.18
2023-04-08T12:11:57.457Z,11.25
2023-04-08T12:14:28.230Z,14.68
2023-04-08T12:16:56.715Z,15.35
2023-04-08T12:19:24.760Z,12.23
2023-04-08T12:21:52.750Z,12.02
2023-04-08T12:24:21.382Z,14.27
2023-04-08T12:26:49.550Z,14.15
2023-04-08T12:29:17.497Z,11.30
2023-04-08T12:31:45.966Z,13.38
2023-04-08T12:34:13.867Z,14.48
2023-04-08T12:36:42.062Z,11.65
2023-04-08T12:39:10.259Z,15.93
2023-04-08T12:41:38.178Z,14.40
2023-04-08T12:44:06.766Z,11.45
2023-04-08T12:46:34.867Z,16.15
2023-04-08T12:49:04.565Z,15.75
2023-04-08T12:51:33.543Z,13.23
2023-04-08T12:54:03.447Z,14.55
2023-04-08T12:56:32.462Z,14.20
2023-04-08T12:59:01.321Z,15.90
2023-04-08T13:01:30.893Z,15.32
2023-04-08T13:03:59.253Z,12.85
2023-04-08T13:06:28.171Z,12.43
2023-04-08T13:08:56.436Z,16.42
2023-04-08T13:11:24.621Z,18.38
2023-04-08T13:13:52.931Z,18.52
2023-04-08T13:16:21.810Z,17.20
2023-04-08T13:18:50.203Z,16.70
2023-04-08T13:21:18.519Z,16.58
2023-04-08T13:23:47.058Z,15.65
2023-04-08T13:26:15.055Z,16.10
2023-04-08T13:28:55.964Z,15.85
2023-04-08T13:31:25.987Z,16.23
2023-04-08T13:33:56.922Z,16.60
2023-04-08T13:36:26.993Z,16.38
2023-04-08T13:38:56.664Z,16.75
2023-04-08T13:41:25.467Z,20.67
2023-04-08T13:43:53.813Z,17.55
2023-04-08T13:46:21.773Z,17.63
2023-04-08T13:48:50.316Z,17.98
2023-04-08T13:51:18.797Z,16.52
2023-04-08T13:53:47.090Z,17.25
2023-04-08T13:56:15.296Z,16.13
2023-04-08T13:58:44.763Z,22.77
2023-04-08T14:01:15.871Z,19.58
2023-04-08T14:03:46.742Z,17.38
2023-04-08T14:06:14.734Z,18.15
2023-04-08T14:08:42.957Z,16.67
2023-04-08T14:11:11.418Z,17.27
2023-04-08T14:13:39.636Z,16.70
2023-04-08T14:16:07.720Z,14.27
2023-04-08T14:18:36.493Z,16.30
2023-04-08T14:21:05.561Z,19.15
2023-04-08T14:23:33.467Z,17.63
2023-04-08T14:26:01.587Z,17.95
2023-04-08T14:28:29.816Z,15.00
2023-04-08T14:30:58.221Z,18.77
2023-04-08T14:33:27.192Z,16.20
2023-04-08T14:35:59.209Z,21.55
2023-04-08T14:38:27.312Z,17.98
2023-04-08T14:40:55.417Z,17.27
2023-04-08T14:43:23.584Z,16.65
2023-04-08T14:45:52.149Z,18.80
2023-04-08T14:48:20.603Z,15.63
2023-04-08T14:50:48.759Z,15.23
2023-04-08T14:53:17.136Z,15.95
2023-04-08T14:55:45.319Z,17.98
2023-04-08T14:58:13.494Z,20.17
2023-04-08T15:00:45.357Z,14.27
2023-04-08T15:03:16.534Z,16.20
2023-04-08T15:05:57.610Z,16.73
2023-04-08T15:08:25.654Z,16.88
2023-04-08T15:10:53.740Z,14.55
2023-04-08T15:13:21.691Z,15.00
2023-04-08T15:15:52.525Z,14.55
2023-04-08T15:18:21.408Z,15.50
2023-04-08T15:20:49.475Z,19.35
2023-04-08T15:23:17.679Z,15.95
2023-04-08T15:25:47.669Z,21.00
2023-04-08T15:28:15.966Z,16.20
2023-04-08T15:30:44.341Z,16.05
2023-04-08T15:33:12.557Z,17.13
2023-04-08T15:35:41.032Z,16.65
2023-04-08T15:38:16.847Z,15.85
2023-04-08T15:40:46.768Z,18.60
2023-04-08T15:43:16.537Z,15.30
2023-04-08T15:45:44.952Z,18.27
2023-04-08T15:48:13.329Z,15.00
2023-04-08T15:50:42.258Z,15.73
2023-04-08T15:53:10.536Z,15.13
2023-04-08T15:55:40.108Z,13.60
2023-04-08T15:58:08.710Z,13.93
2023-04-08T16:00:36.711Z,15.75
2023-04-08T16:03:08.560Z,13.90
2023-04-08T16:05:39.932Z,15.27
2023-04-08T16:08:08.356Z,14.65
2023-04-08T16:10:36.489Z,14.38
2023-04-08T16:13:04.486Z,14.63
2023-04-08T16:15:34.171Z,13.73
2023-04-08T16:18:04.602Z,15.32
2023-04-08T16:20:33.313Z,16.15
2023-04-08T16:23:04.694Z,15.85
2023-04-08T16:25:33.130Z,13.85
2023-04-08T16:28:01.180Z,14.32
2023-04-08T16:30:29.356Z,12.98
2023-04-08T16:32:57.472Z,15.25
2023-04-08T16:35:25.938Z,13.48
2023-04-08T16:37:53.939Z,13.60
2023-04-08T16:40:25.107Z,13.75
2023-04-08T16:42:53.456Z,14.30
2023-04-08T16:45:21.712Z,14.05
2023-04-08T16:47:50.105Z,13.95
2023-04-08T16:50:18.359Z,14.32
2023-04-08T16:52:49.563Z,18.23
2023-04-08T16:55:21.384Z,18.30
2023-04-08T16:57:49.486Z,17.13
2023-04-08T17:00:20.459Z,16.35
2023-04-08T17:02:49.613Z,14.60
2023-04-08T17:05:17.876Z,13.77
2023-04-08T17:07:45.920Z,17.25
2023-04-08T17:10:14.721Z,15.45
2023-04-08T17:12:43.079Z,14.60
2023-04-08T17:15:11.477Z,13.73
2023-04-08T17:17:42.796Z,14.23
2023-04-08T17:20:11.644Z,15.00
2023-04-08T17:22:39.860Z,15.05
2023-04-08T17:25:11.796Z,14.05
2023-04-08T17:27:40.096Z,13.25
2023-04-08T17:30:11.138Z,15.27
2023-04-08T17:32:39.868Z,15.20
2023-04-08T17:35:08.212Z,14.93
2023-04-08T17:37:36.650Z,15.45
2023-04-08T17:40:05.176Z,15.43
2023-04-08T17:42:33.250Z,19.08
2023-04-08T17:45:02.806Z,15.60
2023-04-08T17:47:30.950Z,14.27
2023-04-08T17:49:59.002Z,13.63
2023-04-08T17:52:27.237Z,16.88
2023-04-08T17:54:55.401Z,16.15
2023-04-08T17:57:23.413Z,15.32
2023-04-08T17:59:51.569Z,18.67
2023-04-08T18:02:20.010Z,15.77
2023-04-08T18:04:48.521Z,14.52
2023-04-08T18:07:16.522Z,16.27
2023-04-08T18:09:46.162Z,14.35
2023-04-08T18:12:14.381Z,16.80
2023-04-08T18:14:43.053Z,15.40
2023-04-08T18:17:11.361Z,17.05
2023-04-08T18:19:39.713Z,15.35
2023-04-08T18:22:07.743Z,18.05
2023-04-08T18:24:37.342Z,17.73
2023-04-08T18:27:05.244Z,16.98
2023-04-08T18:29:33.433Z,17.95
2023-04-08T18:32:01.581Z,18.00
2023-04-08T18:34:29.484Z,20.75
2023-04-08T18:36:58.892Z,18.38
2023-04-08T18:39:27.698Z,18.17
2023-04-08T18:41:55.895Z,18.27
2023-04-08T18:44:24.087Z,17.75
2023-04-08T18:46:52.303Z,19.00
2023-04-08T18:49:21.215Z,20.25
2023-04-08T18:52:01.342Z,21.20
2023-04-08T18:54:32.867Z,27.00
2023-04-08T18:57:01.288Z,25.83
2023-04-08T18:59:29.882Z,26.77
2023-04-08T19:02:04.449Z,27.10
2023-04-08T19:04:33.591Z,26.42
2023-04-08T19:07:01.641Z,26.67
2023-04-08T19:09:29.600Z,30.77
2023-04-08T19:11:57.488Z,35.55
2023-04-08T19:14:25.556Z,32.72
2023-04-08T19:16:53.587Z,24.58
2023-04-08T19:19:21.766Z,25.08
2023-04-08T19:21:49.954Z,23.88
2023-04-08T19:24:18.125Z,21.63
2023-04-08T19:26:47.307Z,23.40
2023-04-08T19:29:15.592Z,20.88
2023-04-08T19:31:44.130Z,24.83
2023-04-08T19:34:12.206Z,20.45
2023-04-08T19:36:40.535Z,23.35
2023-04-08T19:39:08.504Z,17.67
2023-04-08T19:41:36.770Z,19.92
2023-04-08T19:44:09.469Z,21.60
2023-04-08T19:46:37.559Z,17.50
2023-04-08T19:49:05.620Z,20.40
2023-04-08T19:51:38.351Z,23.95
2023-04-08T19:54:06.744Z,20.27
2023-04-08T19:56:35.537Z,24.35
2023-04-08T19:59:06.091Z,26.75
2023-04-08T20:01:35.965Z,24.58
2023-04-08T20:04:05.628Z,25.88
2023-04-08T20:06:34.980Z,28.88
2023-04-08T20:09:05.766Z,24.17
2023-04-08T20:11:34.795Z,27.60
2023-04-08T20:14:04.553Z,26.30
2023-04-08T20:16:32.854Z,24.45
2023-04-08T20:19:01.222Z,24.75
2023-04-08T20:21:29.502Z,27.35
2023-04-08T20:23:57.893Z,28.52
2023-04-08T20:26:28.770Z,26.98
2023-04-08T20:28:58.898Z,26.98
2023-04-08T20:31:28.192Z,28.20
2023-04-08T20:33:56.523Z,27.15
2023-04-08T20:36:28.379Z,20.58
2023-04-08T20:39:00.196Z,26.20
2023-04-08T20:41:28.205Z,25.52
2023-04-08T20:43:56.658Z,29.00
2023-04-08T20:46:27.415Z,30.02
2023-04-08T20:48:55.615Z,31.83
2023-04-08T20:51:24.025Z,31.17
2023-04-08T20:53:52.325Z,28.40
2023-04-08T20:56:21.396Z,27.90
2023-04-08T20:58:52.010Z,28.58
2023-04-08T21:01:20.710Z,28.45
2023-04-08T21:03:49.228Z,34.65
2023-04-08T21:06:21.376Z,34.58
2023-04-08T21:08:50.764Z,29.77
2023-04-08T21:11:19.083Z,31.42
2023-04-08T21:13:48.856Z,30.35
2023-04-08T21:16:17.486Z,32.30
2023-04-08T21:18:45.510Z,29.27
2023-04-08T21:21:13.712Z,31.33
2023-04-08T21:23:41.929Z,31.70
2023-04-08T21:26:13.637Z,35.72
2023-04-08T21:28:41.845Z,33.85
2023-04-08T21:31:11.239Z,34.90
2023-04-08T21:33:39.798Z,40.90
2023-04-08T21:36:07.888Z,33.50
2023-04-08T21:38:36.242Z,32.15
2023-04-08T21:41:04.225Z,36.30
2023-04-08T21:43:32.465Z,36.33
2023-04-08T21:46:04.992Z,34.33
2023-04-08T21:48:32.922Z,33.83
2023-04-08T21:51:01.192Z,34.42
2023-04-08T21:53:29.243Z,35.28
2023-04-08T21:55:57.306Z,36.88
2023-04-08T21:58:25.214Z,38.65
2023-04-08T22:00:53.232Z,37.63
2023-04-08T22:03:21.505Z,35.63
2023-04-08T22:05:49.746Z,38.53
2023-04-08T22:08:17.816Z,33.05
2023-04-08T22:10:45.833Z,35.30
2023-04-08T22:13:14.584Z,35.95
2023-04-08T22:15:42.638Z,34.10
2023-04-08T22:18:10.682Z,33.65
2023-04-08T22:20:41.456Z,37.75
2023-04-08T22:23:09.746Z,37.00
2023-04-08T22:25:37.978Z,39.75
2023-04-08T22:28:06.243Z,37.20
2023-04-08T22:30:34.338Z,33.80
2023-04-08T22:33:02.348Z,30.80
2023-04-08T22:35:30.552Z,32.97
2023-04-08T22:37:58.631Z,33.05
2023-04-08T22:40:26.704Z,38.47
2023-04-08T22:46:24.337Z,34.28
2023-04-08T22:48:52.926Z,35.72
2023-04-08T22:51:21.513Z,36.95
2023-04-08T22:53:49.603Z,36.17
2023-04-08T22:56:17.580Z,35.22
2023-04-08T22:58:46.206Z,37.20
2023-04-08T23:01:17.396Z,33.25
2023-04-08T23:03:45.857Z,36.47
2023-04-08T23:06:14.371Z,38.90
2023-04-08T23:08:42.774Z,39.53
2023-04-08T23:11:11.111Z,38.45
2023-04-08T23:13:39.759Z,37.30
2023-04-08T23:16:10.396Z,38.33
2023-04-08T23:18:39.104Z,41.30
2023-04-08T23:21:07.604Z,37.83
2023-04-08T23:23:36.126Z,37.35
2023-04-08T23:26:04.505Z,38.35
2023-04-08T23:28:33.139Z,43.13
2023-04-08T23:31:05.358Z,40.25
2023-04-08T23:33:33.703Z,40.58
2023-04-08T23:36:06.690Z,40.13
2023-04-08T23:38:37.124Z,40.75
2023-04-08T23:41:08.784Z,42.53
2023-04-08T23:43:36.932Z,41.20
2023-04-08T23:46:05.056Z,40.08
2023-04-08T23:48:33.278Z,39.63
2023-04-08T23:51:01.352Z,44.03
2023-04-08T23:53:29.509Z,41.65
2023-04-08T23:56:05.873Z,40.10
2023-04-08T23:58:33.955Z,40.33
